Terminal Aerodrome Forecast
Issued by NWS

Current Version | Previous Version | Text Only | Print | Product List | Glossary Off
Versions: 1 2 3 4 5 6 7 8 9 10 11 12 13 14 15 16 17 18 19 20 21 22 23 24

000
FTUS41 KRLX 131743
TAFCKB
TAF
KCKB 131743Z 1318/1418 01006KT P6SM OVC015
     FM132100 01007KT P6SM BKN030
     FM132300 00000KT P6SM -RA OVC070
     FM140200 01004KT 5SM -RA OVC025
     FM140600 VRB03KT 5SM -FZRA OVC015
     FM140900 VRB03KT 2SM -RA OVC008
     FM141300 VRB03KT 1SM -RA OVC004=

USA.gov is the U.S. government's official web portal to all federal, state and local government web resources and services.